createdAt,value
2018-08-23T00:01:26.859Z,50.29
2018-08-23T00:03:56.948Z,49.86
2018-08-23T00:06:25.716Z,49.68
2018-08-23T00:08:54.472Z,49.93
2018-08-23T00:11:31.504Z,49.27
2018-08-23T00:14:00.308Z,50.23
2018-08-23T00:16:34.754Z,49.82
2018-08-23T00:19:04.382Z,48.99
2018-08-23T00:21:33.326Z,49.80
2018-08-23T00:24:13.930Z,49.53
2018-08-23T00:26:48.225Z,48.83
2018-08-23T00:29:24.094Z,48.85
2018-08-23T00:31:57.476Z,49.25
2018-08-23T00:34:28.665Z,48.46
2018-08-23T00:36:57.758Z,49.07
2018-08-23T00:39:27.271Z,49.05
2018-08-23T00:42:01.126Z,48.85
2018-08-23T00:44:34.252Z,49.33
2018-08-23T00:47:03.101Z,49.20
2018-08-23T00:49:33.363Z,48.44
2018-08-23T00:52:02.047Z,48.45
2018-08-23T00:54:30.677Z,48.65
2018-08-23T00:56:59.307Z,48.90
2018-08-23T00:59:27.951Z,49.22
2018-08-23T01:02:09.356Z,48.95
2018-08-23T01:04:45.207Z,49.53
2018-08-23T01:07:20.096Z,49.05
2018-08-23T01:09:49.654Z,49.44
2018-08-23T01:12:19.454Z,49.81
2018-08-23T01:14:50.116Z,49.48
2018-08-23T01:17:19.497Z,49.17
2018-08-23T01:19:57.739Z,49.63
2018-08-23T01:22:26.530Z,49.19
2018-08-23T01:24:55.883Z,48.79
2018-08-23T01:27:29.742Z,49.44
2018-08-23T01:29:58.666Z,49.25
2018-08-23T01:32:30.943Z,48.46
2018-08-23T01:34:59.775Z,48.05
2018-08-23T01:37:36.787Z,48.22
2018-08-23T01:40:07.695Z,48.63
2018-08-23T01:42:38.620Z,48.33
2018-08-23T01:45:08.810Z,48.56
2018-08-23T01:47:43.254Z,49.26
2018-08-23T01:50:12.753Z,48.74
2018-08-23T01:52:48.419Z,49.16
2018-08-23T01:55:18.170Z,49.66
2018-08-23T01:57:47.278Z,49.70
2018-08-23T02:00:24.428Z,49.83
2018-08-23T02:02:53.340Z,49.14
2018-08-23T02:05:23.166Z,48.93
2018-08-23T02:07:52.119Z,48.91
2018-08-23T02:10:21.010Z,48.90
2018-08-23T02:12:52.755Z,48.40
2018-08-23T02:15:21.847Z,48.99
2018-08-23T02:17:52.461Z,49.36
2018-08-23T02:20:21.537Z,49.43
2018-08-23T02:22:50.275Z,48.89
2018-08-23T02:25:18.938Z,48.47
2018-08-23T02:28:06.578Z,48.97
2018-08-23T02:30:46.011Z,49.28
2018-08-23T02:33:15.253Z,49.53
2018-08-23T02:35:56.198Z,49.76
2018-08-23T02:38:25.769Z,49.50
2018-08-23T02:40:54.428Z,49.43
2018-08-23T02:43:23.322Z,49.72
2018-08-23T02:45:53.795Z,50.11
2018-08-23T02:48:23.511Z,49.74
2018-08-23T02:50:52.816Z,50.00
2018-08-23T02:53:31.319Z,49.87
2018-08-23T02:56:17.438Z,49.84
2018-08-23T02:58:58.897Z,50.39
2018-08-23T03:01:29.702Z,50.80
2018-08-23T03:04:20.968Z,51.15
2018-08-23T03:06:57.372Z,51.72
2018-08-23T03:09:29.774Z,50.81
2018-08-23T03:11:59.867Z,50.85
2018-08-23T03:14:29.506Z,51.56
2018-08-23T03:17:33.647Z,51.68
2018-08-23T03:20:07.738Z,51.52
2018-08-23T03:22:36.891Z,51.75
2018-08-23T03:25:09.194Z,51.96
2018-08-23T03:27:38.000Z,51.27
2018-08-23T03:30:09.439Z,51.24
2018-08-23T03:32:38.314Z,51.00
2018-08-23T03:35:07.998Z,51.02
2018-08-23T03:37:37.274Z,52.17
2018-08-23T03:40:07.509Z,51.88
2018-08-23T03:42:36.969Z,52.21
2018-08-23T03:45:06.472Z,53.06
2018-08-23T03:47:40.615Z,52.61
2018-08-23T03:50:09.928Z,52.62
2018-08-23T03:52:40.256Z,52.77
2018-08-23T03:55:10.346Z,53.55
2018-08-23T03:57:44.207Z,53.83
2018-08-23T04:00:14.062Z,52.99
2018-08-23T04:02:42.961Z,53.98
2018-08-23T04:05:16.762Z,53.42
2018-08-23T04:07:45.598Z,54.63
2018-08-23T04:10:14.380Z,53.16
2018-08-23T04:12:44.174Z,53.55
2018-08-23T04:15:21.407Z,53.37
2018-08-23T04:17:51.581Z,52.80
2018-08-23T04:20:20.346Z,51.50
2018-08-23T04:22:49.295Z,51.24
2018-08-23T04:25:17.999Z,49.93
2018-08-23T04:27:48.068Z,49.65
2018-08-23T04:30:17.603Z,48.30
2018-08-23T04:32:47.645Z,49.91
2018-08-23T04:35:27.311Z,49.88
2018-08-23T04:37:56.193Z,49.96
2018-08-23T04:40:25.471Z,49.64
2018-08-23T04:42:54.233Z,49.74
2018-08-23T04:45:30.090Z,49.99
2018-08-23T04:48:04.024Z,49.65
2018-08-23T04:50:32.878Z,49.87
2018-08-23T04:53:01.556Z,48.86
2018-08-23T04:55:30.215Z,49.02
2018-08-23T04:57:59.835Z,47.74
2018-08-23T05:00:29.314Z,49.07
2018-08-23T05:02:58.123Z,50.07
2018-08-23T05:05:27.145Z,50.08
2018-08-23T05:07:55.935Z,50.32
2018-08-23T05:10:24.653Z,49.24
2018-08-23T05:12:54.375Z,48.63
2018-08-23T05:15:23.963Z,48.37
2018-08-23T05:17:52.820Z,47.43
2018-08-23T05:20:22.843Z,46.77
2018-08-23T05:22:56.710Z,44.89
2018-08-23T05:25:26.152Z,43.96
2018-08-23T05:28:11.340Z,43.73
2018-08-23T05:30:40.276Z,44.23
2018-08-23T05:33:17.583Z,43.46
2018-08-23T05:35:46.379Z,43.12
2018-08-23T05:38:15.796Z,42.95
2018-08-23T05:40:46.882Z,42.34
2018-08-23T05:43:16.276Z,43.17
2018-08-23T05:45:52.477Z,42.21
2018-08-23T05:48:32.502Z,41.92
2018-08-23T05:51:03.094Z,41.55
2018-08-23T05:53:31.928Z,41.82
2018-08-23T05:56:01.446Z,41.35
2018-08-23T05:58:32.471Z,39.80
2018-08-23T06:01:01.584Z,40.70
2018-08-23T06:03:30.320Z,40.04
2018-08-23T06:05:59.216Z,39.90
2018-08-23T06:08:27.987Z,39.71
2018-08-23T06:11:05.217Z,39.03
2018-08-23T06:13:34.829Z,38.10
2018-08-23T06:16:03.619Z,37.73
2018-08-23T06:18:32.403Z,37.86
2018-08-23T06:21:01.214Z,37.20
2018-08-23T06:23:37.640Z,37.23
2018-08-23T06:26:06.366Z,35.42
2018-08-23T06:28:35.089Z,35.79
2018-08-23T06:31:05.227Z,35.95
2018-08-23T06:33:39.896Z,35.62
2018-08-23T06:36:10.159Z,35.97
2018-08-23T06:38:40.748Z,34.29
2018-08-23T06:41:09.688Z,33.98
2018-08-23T06:43:38.541Z,33.56
2018-08-23T06:46:07.322Z,34.63
2018-08-23T06:48:36.146Z,34.34
2018-08-23T06:51:05.618Z,34.51
2018-08-23T06:53:45.967Z,33.17
2018-08-23T06:56:15.416Z,33.93
2018-08-23T06:58:44.138Z,33.40
2018-08-23T07:01:28.122Z,32.96
2018-08-23T07:04:00.312Z,33.49
2018-08-23T07:06:29.099Z,32.30
2018-08-23T07:08:57.883Z,32.03
2018-08-23T07:11:27.020Z,32.11
2018-08-23T07:14:00.961Z,29.45
2018-08-23T07:16:56.894Z,31.47
2018-08-23T07:19:47.658Z,30.89
2018-08-23T07:22:29.648Z,32.08
2018-08-23T07:25:21.066Z,30.64
2018-08-23T07:27:49.714Z,29.13
2018-08-23T07:30:19.726Z,31.52
2018-08-23T07:32:49.814Z,29.74
2018-08-23T07:35:20.800Z,29.94
2018-08-23T07:37:51.785Z,29.62
2018-08-23T07:40:23.719Z,28.94
2018-08-23T07:42:53.639Z,28.11
2018-08-23T07:45:22.368Z,28.02
2018-08-23T07:47:52.656Z,27.23
2018-08-23T07:50:21.370Z,26.50
2018-08-23T07:52:51.356Z,25.40
2018-08-23T07:55:20.107Z,23.55
2018-08-23T07:57:48.819Z,23.73
2018-08-23T08:00:43.122Z,23.77
2018-08-23T08:03:13.194Z,23.19
2018-08-23T08:05:43.194Z,23.25
2018-08-23T08:08:12.878Z,24.09
2018-08-23T08:10:43.870Z,25.11
2018-08-23T08:13:12.743Z,24.76
2018-08-23T08:15:41.456Z,24.09
2018-08-23T08:18:16.824Z,24.60
2018-08-23T08:20:50.824Z,24.62
2018-08-23T08:23:19.582Z,25.27
2018-08-23T08:25:48.343Z,26.66
2018-08-23T08:28:18.229Z,27.49
2018-08-23T08:30:47.875Z,27.63
2018-08-23T08:33:21.550Z,27.97
2018-08-23T08:35:51.125Z,28.07
2018-08-23T08:38:19.910Z,28.10
2018-08-23T08:40:51.221Z,27.53
2018-08-23T08:43:19.965Z,28.40
2018-08-23T08:45:52.812Z,27.33
2018-08-23T08:48:35.901Z,29.35
2018-08-23T08:51:20.756Z,29.13
2018-08-23T08:53:49.565Z,29.63
2018-08-23T08:56:25.354Z,28.51
2018-08-23T08:58:54.116Z,27.11
2018-08-23T09:01:22.967Z,28.29
2018-08-23T09:03:51.736Z,27.96
2018-08-23T09:06:24.170Z,26.90
2018-08-23T09:08:53.108Z,28.54
2018-08-23T09:11:23.662Z,27.04
2018-08-23T09:13:56.279Z,27.89
2018-08-23T09:16:25.504Z,26.47
2018-08-23T09:19:00.868Z,28.03
2018-08-23T09:21:30.255Z,27.81
2018-08-23T09:24:09.016Z,27.27
2018-08-23T09:26:39.017Z,27.35
2018-08-23T09:29:16.748Z,26.74
2018-08-23T09:31:45.484Z,26.70
2018-08-23T09:34:14.296Z,26.73
2018-08-23T09:36:43.594Z,26.72
2018-08-23T09:39:12.323Z,26.33
2018-08-23T09:41:42.047Z,27.15
2018-08-23T09:44:10.771Z,27.32
2018-08-23T09:46:47.930Z,27.05
2018-08-23T09:49:16.659Z,28.58
2018-08-23T09:51:45.330Z,29.04
2018-08-23T09:54:18.238Z,28.51
2018-08-23T09:56:46.959Z,28.37
2018-08-23T09:59:15.704Z,28.14
2018-08-23T10:01:49.570Z,28.10
2018-08-23T10:04:23.629Z,29.28
2018-08-23T10:07:02.219Z,29.63
2018-08-23T10:09:35.103Z,29.34
2018-08-23T10:12:08.982Z,28.71
2018-08-23T10:14:42.794Z,29.53
2018-08-23T10:17:16.743Z,29.97
2018-08-23T10:19:50.682Z,29.75
2018-08-23T10:22:24.516Z,30.88
2018-08-23T10:24:53.235Z,29.75
2018-08-23T10:27:21.983Z,29.35
2018-08-23T10:29:50.836Z,29.76
2018-08-23T10:32:19.741Z,29.63
2018-08-23T10:34:48.516Z,29.73
2018-08-23T10:37:17.215Z,30.39
2018-08-23T10:39:45.940Z,30.14
2018-08-23T10:42:17.123Z,30.05
2018-08-23T10:44:46.008Z,28.53
2018-08-23T10:47:18.802Z,29.08
2018-08-23T10:49:47.449Z,29.47
2018-08-23T10:52:16.195Z,30.29
2018-08-23T10:54:45.058Z,29.17
2018-08-23T10:57:18.865Z,29.40
2018-08-23T10:59:47.663Z,28.62
2018-08-23T11:02:16.379Z,28.84
2018-08-23T11:04:45.197Z,29.68
2018-08-23T11:07:13.884Z,29.61
2018-08-23T11:09:47.798Z,30.44
2018-08-23T11:12:21.807Z,30.11
2018-08-23T11:14:50.631Z,29.39
2018-08-23T11:17:24.623Z,28.59
2018-08-23T11:19:58.467Z,29.89
2018-08-23T11:22:32.362Z,30.09
2018-08-23T11:25:01.118Z,29.60
2018-08-23T11:27:29.862Z,28.94
2018-08-23T11:29:58.610Z,28.47
2018-08-23T11:32:27.386Z,28.97
2018-08-23T11:34:56.284Z,29.05
2018-08-23T11:37:24.966Z,28.40
2018-08-23T11:39:53.739Z,29.30
2018-08-23T11:42:22.517Z,28.54
2018-08-23T11:44:51.301Z,29.03
2018-08-23T11:47:20.054Z,28.95
2018-08-23T11:49:48.839Z,29.27
2018-08-23T11:52:17.631Z,29.76
2018-08-23T11:54:46.338Z,30.10
2018-08-23T11:57:15.148Z,30.50
2018-08-23T11:59:44.011Z,29.18
2018-08-23T12:02:12.875Z,29.31
2018-08-23T12:04:41.676Z,29.75
2018-08-23T12:07:10.617Z,28.92
2018-08-23T12:09:39.365Z,30.95
2018-08-23T12:12:08.206Z,30.05
2018-08-23T12:14:36.998Z,29.37
2018-08-23T12:17:05.803Z,31.66
2018-08-23T12:19:34.486Z,30.53
2018-08-23T12:22:03.238Z,31.09
2018-08-23T12:24:32.006Z,30.97
2018-08-23T12:27:00.914Z,30.84
2018-08-23T12:29:29.653Z,30.63
2018-08-23T12:31:58.353Z,30.60
2018-08-23T12:34:32.946Z,31.29
2018-08-23T12:37:06.894Z,32.02
2018-08-23T12:39:40.819Z,31.15
2018-08-23T12:42:14.753Z,31.62
2018-08-23T12:44:48.531Z,31.55
2018-08-23T12:47:17.278Z,33.27
2018-08-23T12:49:47.972Z,32.62
2018-08-23T12:52:16.971Z,31.64
2018-08-23T12:54:45.738Z,32.43
2018-08-23T12:57:14.462Z,32.88
2018-08-23T12:59:43.156Z,33.03
2018-08-23T13:02:11.845Z,32.66
2018-08-23T13:04:40.475Z,33.53
2018-08-23T13:07:09.200Z,32.07
2018-08-23T13:09:37.871Z,33.50
2018-08-23T13:12:06.549Z,33.04
2018-08-23T13:14:35.206Z,33.41
2018-08-23T13:17:03.980Z,33.62
2018-08-23T13:19:32.644Z,33.38
2018-08-23T13:22:01.422Z,34.12
2018-08-23T13:24:30.737Z,34.42
2018-08-23T13:26:59.747Z,35.31
2018-08-23T13:29:29.045Z,34.02
2018-08-23T13:31:58.394Z,34.36
2018-08-23T13:34:27.145Z,34.31
2018-08-23T13:36:55.818Z,33.81
2018-08-23T13:39:24.511Z,34.47
2018-08-23T13:41:53.359Z,33.88
2018-08-23T13:44:22.049Z,34.78
2018-08-23T13:46:50.719Z,33.91
2018-08-23T13:49:19.374Z,34.09
2018-08-23T13:51:48.098Z,33.75
2018-08-23T13:54:16.888Z,34.75
2018-08-23T13:56:45.823Z,34.15
2018-08-23T13:59:14.523Z,33.25
2018-08-23T14:01:43.210Z,33.81
2018-08-23T14:04:11.939Z,34.33
2018-08-23T14:06:40.604Z,34.52
2018-08-23T14:09:09.433Z,34.73
2018-08-23T14:11:38.196Z,34.54
2018-08-23T14:14:06.889Z,35.01
2018-08-23T14:16:35.662Z,34.20
2018-08-23T14:19:04.403Z,33.83
2018-08-23T14:21:33.060Z,33.52
2018-08-23T14:24:01.870Z,33.62
2018-08-23T14:26:30.636Z,33.09
2018-08-23T14:28:59.290Z,34.29
2018-08-23T14:31:28.008Z,34.08
2018-08-23T14:33:56.721Z,34.14
2018-08-23T14:36:25.407Z,34.24
2018-08-23T14:38:54.135Z,33.85
2018-08-23T14:41:22.839Z,33.60
2018-08-23T14:43:51.550Z,34.46
2018-08-23T14:46:25.477Z,35.06
2018-08-23T14:48:54.146Z,35.32
2018-08-23T14:51:22.868Z,35.72
2018-08-23T14:53:51.678Z,35.97
2018-08-23T14:56:25.813Z,36.25
2018-08-23T14:58:54.604Z,36.09
2018-08-23T15:01:23.332Z,35.45
2018-08-23T15:03:52.895Z,35.02
2018-08-23T15:06:21.579Z,35.59
2018-08-23T15:08:50.264Z,36.02
2018-08-23T15:11:19.052Z,35.13
2018-08-23T15:13:47.714Z,36.22
2018-08-23T15:16:16.427Z,36.46
2018-08-23T15:18:45.124Z,36.00
2018-08-23T15:21:13.749Z,36.32
2018-08-23T15:23:42.376Z,36.21
2018-08-23T15:26:11.198Z,36.13
2018-08-23T15:28:39.907Z,36.14
2018-08-23T15:31:08.645Z,37.03
2018-08-23T15:33:37.326Z,36.70
2018-08-23T15:36:06.262Z,36.92
2018-08-23T15:38:34.919Z,36.55
2018-08-23T15:41:03.671Z,37.35
2018-08-23T15:43:32.314Z,35.97
2018-08-23T15:46:01.070Z,36.87
2018-08-23T15:48:29.707Z,36.86
2018-08-23T15:50:58.360Z,37.12
2018-08-23T15:53:26.995Z,36.94
2018-08-23T15:55:55.799Z,37.33
2018-08-23T15:58:24.508Z,36.18
2018-08-23T16:00:53.146Z,37.05
2018-08-23T16:03:21.770Z,37.16
2018-08-23T16:05:50.477Z,37.96
2018-08-23T16:08:19.307Z,36.96
2018-08-23T16:10:47.999Z,37.06
2018-08-23T16:13:16.707Z,37.12
2018-08-23T16:15:45.363Z,37.93
2018-08-23T16:18:19.091Z,38.21
2018-08-23T16:20:51.888Z,37.79
2018-08-23T16:23:21.117Z,38.22
2018-08-23T16:25:49.771Z,38.54
2018-08-23T16:28:18.460Z,39.15
2018-08-23T16:30:47.114Z,39.16
2018-08-23T16:33:15.764Z,39.34
2018-08-23T16:35:44.404Z,39.20
2018-08-23T16:38:13.004Z,39.83
2018-08-23T16:40:41.668Z,39.43
2018-08-23T16:43:10.317Z,40.01
2018-08-23T16:45:39.056Z,40.05
2018-08-23T16:48:07.852Z,40.25
2018-08-23T16:50:36.505Z,40.66
2018-08-23T16:53:05.230Z,40.83
2018-08-23T16:55:33.895Z,40.90
2018-08-23T16:58:02.618Z,41.08
2018-08-23T17:00:31.280Z,41.22
2018-08-23T17:02:59.898Z,41.50
2018-08-23T17:05:28.556Z,41.39
2018-08-23T17:07:57.198Z,41.54
2018-08-23T17:10:25.924Z,41.90
2018-08-23T17:12:54.613Z,42.44
2018-08-23T17:15:23.499Z,42.07
2018-08-23T17:17:56.458Z,41.68
2018-08-23T17:20:25.318Z,42.28
2018-08-23T17:22:53.922Z,42.64
2018-08-23T17:25:22.540Z,42.34
2018-08-23T17:27:51.197Z,42.87
2018-08-23T17:30:22.393Z,43.27
2018-08-23T17:32:51.060Z,43.53
2018-08-23T17:35:20.117Z,43.84
2018-08-23T17:37:48.810Z,43.88
2018-08-23T17:40:17.450Z,44.13
2018-08-23T17:42:46.118Z,44.43
2018-08-23T17:45:15.365Z,44.33
2018-08-23T17:47:44.116Z,44.40
2018-08-23T17:50:12.900Z,44.77
2018-08-23T17:52:41.566Z,44.98
2018-08-23T17:55:10.362Z,45.01
2018-08-23T17:57:39.035Z,45.86
2018-08-23T18:00:07.846Z,46.25
2018-08-23T18:02:36.561Z,46.55
2018-08-23T18:05:05.302Z,46.97
2018-08-23T18:07:34.515Z,46.56
2018-08-23T18:10:03.221Z,46.96
2018-08-23T18:12:31.995Z,47.28
2018-08-23T18:15:00.662Z,47.05
2018-08-23T18:17:29.321Z,47.71
2018-08-23T18:19:58.031Z,46.83
2018-08-23T18:22:26.714Z,47.76
2018-08-23T18:24:55.354Z,47.06
2018-08-23T18:27:24.118Z,47.44
2018-08-23T18:29:52.792Z,47.38
2018-08-23T18:32:21.488Z,46.85
2018-08-23T18:34:50.170Z,48.54
2018-08-23T18:37:19.032Z,48.64
2018-08-23T18:39:47.711Z,48.59
2018-08-23T18:42:16.393Z,48.49
2018-08-23T18:44:45.124Z,48.18
2018-08-23T18:47:14.027Z,49.31
2018-08-23T18:49:42.820Z,49.31
2018-08-23T18:52:11.510Z,49.12
2018-08-23T18:54:40.170Z,49.40
2018-08-23T18:57:08.846Z,49.34
2018-08-23T18:59:37.842Z,49.78
2018-08-23T19:02:06.576Z,50.25
2018-08-23T19:04:35.253Z,51.01
2018-08-23T19:07:04.026Z,50.32
2018-08-23T19:09:32.662Z,50.46
2018-08-23T19:12:03.349Z,50.46
2018-08-23T19:14:32.028Z,51.42
2018-08-23T19:17:05.981Z,51.05
2018-08-23T19:19:34.631Z,51.35
2018-08-23T19:22:03.290Z,52.13
2018-08-23T19:24:31.971Z,51.99
2018-08-23T19:27:00.614Z,52.26
2018-08-23T19:29:29.282Z,53.23
2018-08-23T19:31:57.922Z,52.97
2018-08-23T19:34:26.602Z,53.58
2018-08-23T19:36:55.311Z,54.11
2018-08-23T19:39:23.982Z,54.36
2018-08-23T19:41:52.646Z,54.28
2018-08-23T19:44:21.317Z,55.38
2018-08-23T19:46:55.089Z,54.77
2018-08-23T19:49:28.942Z,54.63
2018-08-23T19:51:57.565Z,55.34
2018-08-23T19:54:26.276Z,54.93
2018-08-23T19:56:54.927Z,55.58
2018-08-23T19:59:23.615Z,55.79
2018-08-23T20:01:52.247Z,55.57
2018-08-23T20:04:20.895Z,56.16
2018-08-23T20:06:49.554Z,56.44
2018-08-23T20:09:18.193Z,55.85
2018-08-23T20:11:46.815Z,56.41
2018-08-23T20:14:15.490Z,56.32
2018-08-23T20:16:44.106Z,55.43
2018-08-23T20:19:12.754Z,55.22
2018-08-23T20:21:41.442Z,55.25
2018-08-23T20:24:10.063Z,55.38
2018-08-23T20:26:38.741Z,56.02
2018-08-23T20:29:07.530Z,55.71
2018-08-23T20:31:36.213Z,55.62
2018-08-23T20:34:04.878Z,55.52
2018-08-23T20:36:33.517Z,55.81
2018-08-23T20:39:02.193Z,55.71
2018-08-23T20:41:30.887Z,56.58
2018-08-23T20:43:59.624Z,55.90
2018-08-23T20:46:28.317Z,56.24
2018-08-23T20:48:56.970Z,57.18
2018-08-23T20:51:25.643Z,57.29
2018-08-23T20:53:54.311Z,57.12
2018-08-23T20:56:23.090Z,56.95
2018-08-23T20:58:51.718Z,57.22
2018-08-23T21:01:20.369Z,57.88
2018-08-23T21:03:49.165Z,57.58
2018-08-23T21:06:17.813Z,58.47
2018-08-23T21:08:46.581Z,58.78
2018-08-23T21:11:15.326Z,58.27
2018-08-23T21:13:43.995Z,58.32
2018-08-23T21:16:12.689Z,59.26
2018-08-23T21:18:41.377Z,59.70
2018-08-23T21:21:09.999Z,59.58
2018-08-23T21:23:38.678Z,59.80
2018-08-23T21:26:07.383Z,59.97
2018-08-23T21:28:36.051Z,59.58
2018-08-23T21:31:04.759Z,59.56
2018-08-23T21:33:33.482Z,59.61
2018-08-23T21:36:02.146Z,59.95
2018-08-23T21:38:30.859Z,59.58
2018-08-23T21:40:59.604Z,59.62
2018-08-23T21:43:28.254Z,60.19
2018-08-23T21:45:56.908Z,60.37
2018-08-23T21:48:25.563Z,60.33
2018-08-23T21:50:54.273Z,59.00
2018-08-23T21:53:22.969Z,58.75
2018-08-23T21:55:51.692Z,59.30
2018-08-23T21:58:28.695Z,58.84
2018-08-23T22:01:02.401Z,59.66
2018-08-23T22:03:31.108Z,59.34
2018-08-23T22:05:59.929Z,58.95
2018-08-23T22:08:39.762Z,59.61
2018-08-23T22:11:08.447Z,58.57
2018-08-23T22:13:37.136Z,58.92
2018-08-23T22:16:06.739Z,58.91
2018-08-23T22:18:35.414Z,58.72
2018-08-23T22:21:04.123Z,58.66
2018-08-23T22:23:32.880Z,58.61
2018-08-23T22:26:01.597Z,59.12
2018-08-23T22:28:30.298Z,58.64
2018-08-23T22:30:58.982Z,59.62
2018-08-23T22:33:27.687Z,58.78
2018-08-23T22:35:56.441Z,58.18
2018-08-23T22:38:25.066Z,58.01
2018-08-23T22:40:53.751Z,58.53
2018-08-23T22:43:22.591Z,58.15
2018-08-23T22:45:51.416Z,58.23
2018-08-23T22:48:20.083Z,58.04
2018-08-23T22:50:48.731Z,59.03
2018-08-23T22:53:17.418Z,58.45
2018-08-23T22:55:46.534Z,59.37
2018-08-23T22:58:15.226Z,60.19
2018-08-23T23:00:43.935Z,60.09
2018-08-23T23:03:17.851Z,60.56
2018-08-23T23:05:47.660Z,59.86
2018-08-23T23:08:16.374Z,59.64
2018-08-23T23:10:45.047Z,60.64
2018-08-23T23:13:13.759Z,60.20
2018-08-23T23:15:43.686Z,61.20
2018-08-23T23:18:12.930Z,60.73
2018-08-23T23:20:41.586Z,60.66
2018-08-23T23:23:11.100Z,61.50
2018-08-23T23:25:39.825Z,61.61
2018-08-23T23:28:08.867Z,60.69
2018-08-23T23:30:38.126Z,61.04
2018-08-23T23:33:06.838Z,60.34
2018-08-23T23:35:35.587Z,60.14
2018-08-23T23:38:04.695Z,59.97
2018-08-23T23:40:33.658Z,60.55
2018-08-23T23:43:02.529Z,59.41
2018-08-23T23:45:31.312Z,60.26
2018-08-23T23:48:00.225Z,60.47
2018-08-23T23:50:29.243Z,60.50
2018-08-23T23:52:58.036Z,59.86
2018-08-23T23:55:26.925Z,60.82
2018-08-23T23:57:55.699Z,59.95
